Time;durP1;ratioP1;P1;durP2;ratioP2;P2;SDS_P1;SDS_P2;PMS_P1;PMS_P2;Temp;Humidity;BMP_temperature;BMP_pressure;BME280_temperature;BME280_humidity;BME280_pressure;Samples;Min_cycle;Max_cycle;Signal;HPM_P1;HPM_P2
2022/02/22 00:02:51;;;;;;;63.60;59.47;;;;;;;7.87;100.00;102179.75;2016229;71;33320;-73
2022/02/22 00:08:36;;;;;;;63.77;58.50;;;;;;;7.94;100.00;102181.88;2009151;71;33997;-73
2022/02/22 00:14:20;;;;;;;63.30;58.17;;;;;;;7.88;100.00;102170.35;2005376;70;32805;-72
2022/02/22 00:20:09;;;;;;;61.43;57.23;;;;;;;7.85;100.00;102176.36;1991316;71;33215;-73
2022/02/22 00:25:53;;;;;;;66.17;61.13;;;;;;;7.77;100.00;102185.84;2007360;71;32813;-72
2022/02/22 00:31:37;;;;;;;66.13;61.13;;;;;;;7.83;100.00;102188.19;2011199;71;32744;-72
2022/02/22 00:37:22;;;;;;;63.53;58.37;;;;;;;7.92;100.00;102181.78;2014383;71;33364;-73
2022/02/22 00:43:07;;;;;;;63.57;58.70;;;;;;;7.84;100.00;102162.22;1998208;71;33309;-72
2022/02/22 00:48:52;;;;;;;63.37;58.77;;;;;;;7.95;100.00;102161.44;2005460;71;33394;-72
2022/02/22 00:54:36;;;;;;;65.90;60.77;;;;;;;7.96;100.00;102173.35;2003528;71;32981;-71
2022/02/22 01:00:21;;;;;;;68.93;63.73;;;;;;;7.87;100.00;102167.84;2007467;71;32754;-70
2022/02/22 01:06:06;;;;;;;65.20;60.17;;;;;;;8.00;100.00;102174.00;2014664;71;33044;-72
2022/02/22 01:11:51;;;;;;;66.13;61.13;;;;;;;8.06;100.00;102174.98;2003268;71;32948;-72
2022/02/22 01:17:35;;;;;;;65.63;60.03;;;;;;;8.12;100.00;102165.75;2003495;71;32812;-71
2022/02/22 01:23:22;;;;;;;64.50;59.47;;;;;;;8.18;100.00;102165.63;1990949;71;32803;-72
2022/02/22 01:29:06;;;;;;;69.70;63.93;;;;;;;8.15;100.00;102155.58;1996741;71;32762;-72
2022/02/22 01:34:50;;;;;;;70.03;64.03;;;;;;;8.14;100.00;102145.58;1998216;71;32950;-73
2022/02/22 01:40:35;;;;;;;70.90;64.37;;;;;;;8.10;100.00;102151.30;1999675;71;32886;-71
2022/02/22 01:46:19;;;;;;;72.00;65.93;;;;;;;8.14;100.00;102137.28;2005195;71;32813;-72
2022/02/22 01:52:05;;;;;;;75.43;68.47;;;;;;;7.99;100.00;102130.83;2016220;71;32935;-71
2022/02/22 01:57:50;;;;;;;75.13;68.10;;;;;;;8.00;100.00;102130.30;2000248;71;32811;-73
2022/02/22 02:03:35;;;;;;;72.30;65.63;;;;;;;7.98;100.00;102129.14;2012530;71;32878;-71
2022/02/22 02:09:19;;;;;;;72.93;65.73;;;;;;;8.09;100.00;102129.69;1916913;73;33576;-72
2022/02/22 02:15:06;;;;;;;70.00;63.33;;;;;;;8.02;100.00;102121.20;2016264;70;34382;-72
2022/02/22 02:20:50;;;;;;;70.93;64.33;;;;;;;8.00;100.00;102099.29;2008853;71;32924;-72
2022/02/22 02:26:35;;;;;;;73.77;66.80;;;;;;;8.06;100.00;102074.83;1998057;71;33498;-72
2022/02/22 02:32:21;;;;;;;74.53;67.77;;;;;;;7.91;100.00;102062.01;2000190;71;32775;-71
2022/02/22 02:38:06;;;;;;;74.07;67.00;;;;;;;8.12;100.00;102047.59;2010809;70;33391;-71
2022/02/22 02:43:50;;;;;;;75.43;68.33;;;;;;;8.12;100.00;102043.44;2005061;71;32837;-71
2022/02/22 02:49:34;;;;;;;73.10;66.33;;;;;;;8.11;100.00;102040.36;2008862;70;33280;-72
2022/02/22 02:55:19;;;;;;;73.20;65.97;;;;;;;8.03;100.00;102039.34;2007630;71;32869;-73
2022/02/22 03:01:03;;;;;;;72.97;66.13;;;;;;;7.96;100.00;102037.20;2005776;71;32946;-72
2022/02/22 03:06:48;;;;;;;70.00;63.33;;;;;;;7.97;100.00;102027.84;2001937;71;32771;-72
2022/02/22 03:12:32;;;;;;;69.17;62.70;;;;;;;8.10;100.00;102022.07;2012628;71;32837;-72
2022/02/22 03:18:16;;;;;;;71.07;64.50;;;;;;;8.19;100.00;102019.25;2005908;71;32826;-73
2022/02/22 03:24:01;;;;;;;69.40;62.20;;;;;;;8.21;100.00;102015.67;2016231;71;33280;-72
2022/02/22 03:29:46;;;;;;;73.97;66.07;;;;;;;8.09;100.00;101998.78;1998849;71;32870;-71
2022/02/22 03:35:30;;;;;;;72.70;65.87;;;;;;;8.01;100.00;102000.52;2014290;71;32838;-71
2022/02/22 03:41:14;;;;;;;75.70;67.70;;;;;;;8.18;100.00;101972.42;2013281;71;33241;-72
2022/02/22 03:46:58;;;;;;;75.10;67.93;;;;;;;8.15;100.00;101975.69;2016184;71;33416;-71
2022/02/22 03:52:43;;;;;;;70.77;63.93;;;;;;;8.14;100.00;101966.54;2003115;70;32838;-73
2022/02/22 03:58:27;;;;;;;72.17;64.50;;;;;;;8.20;100.00;101950.89;1994608;71;32877;-71
2022/02/22 04:04:11;;;;;;;67.80;60.90;;;;;;;8.33;100.00;101938.22;1994679;71;32773;-72
2022/02/22 04:09:55;;;;;;;71.80;64.63;;;;;;;8.21;100.00;101934.02;2014516;71;32972;-72
2022/02/22 04:15:39;;;;;;;75.27;67.97;;;;;;;8.21;100.00;101919.38;2007072;71;32841;-73
2022/02/22 04:21:23;;;;;;;73.70;66.20;;;;;;;8.23;100.00;101895.05;2004973;71;32827;-72
2022/02/22 04:27:08;;;;;;;75.43;67.43;;;;;;;8.29;100.00;101886.31;1994748;71;32844;-72
2022/02/22 04:32:53;;;;;;;72.50;65.27;;;;;;;8.50;100.00;101894.83;2005238;71;32921;-71
2022/02/22 04:38:37;;;;;;;69.47;61.97;;;;;;;8.37;100.00;101872.96;2010586;71;32821;-72
2022/02/22 04:44:21;;;;;;;68.50;62.00;;;;;;;8.45;100.00;101880.87;2016184;71;32828;-73
2022/02/22 04:50:06;;;;;;;67.80;60.77;;;;;;;8.59;100.00;101870.36;2000093;71;32818;-73
2022/02/22 04:55:49;;;;;;;69.77;61.47;;;;;;;8.55;100.00;101866.41;2005911;71;33193;-71
2022/02/22 05:01:34;;;;;;;66.27;58.50;;;;;;;8.60;100.00;101838.81;1957963;71;39482;-72
2022/02/22 05:07:16;;;;;;;68.47;61.33;;;;;;;8.67;100.00;101825.64;2016313;71;32819;-71
2022/02/22 05:13:00;;;;;;;73.37;60.77;;;;;;;8.68;100.00;101823.17;2014267;71;32895;-74
2022/02/22 05:18:44;;;;;;;66.30;59.30;;;;;;;8.70;100.00;101804.36;2011310;71;32744;-73
2022/02/22 05:24:28;;;;;;;68.40;60.50;;;;;;;8.81;100.00;101802.63;2005710;71;33221;-73
2022/02/22 05:30:15;;;;;;;63.50;56.60;;;;;;;8.81;100.00;101813.70;2012532;71;32822;-72
2022/02/22 05:36:01;;;;;;;62.57;56.40;;;;;;;9.04;100.00;101814.38;2005699;71;32744;-71
2022/02/22 05:41:45;;;;;;;58.33;52.47;;;;;;;9.39;100.00;101810.50;2007479;71;33269;-72
2022/02/22 05:47:29;;;;;;;60.13;54.33;;;;;;;9.52;100.00;101796.28;1994783;71;32743;-73
2022/02/22 05:53:13;;;;;;;61.27;55.53;;;;;;;9.62;100.00;101803.37;2000366;71;33279;-73
2022/02/22 05:59:02;;;;;;;60.37;54.67;;;;;;;9.76;100.00;101786.63;2011175;71;33020;-71
2022/02/22 06:04:45;;;;;;;60.70;54.50;;;;;;;9.84;100.00;101783.39;1979633;72;32993;-73
2022/02/22 06:10:29;;;;;;;59.00;53.43;;;;;;;9.89;100.00;101767.36;2016204;71;33308;-73
2022/02/22 06:16:13;;;;;;;63.07;56.90;;;;;;;9.85;100.00;101785.08;2017988;71;32818;-72
2022/02/22 06:21:57;;;;;;;61.33;55.63;;;;;;;9.88;100.00;101780.97;1994690;71;32748;-72
2022/02/22 06:27:50;;;;;;;57.13;51.70;;;;;;;9.82;100.00;101777.83;2010807;71;32811;-73
2022/02/22 06:33:35;;;;;;;58.77;53.27;;;;;;;9.82;100.00;101772.28;1991102;71;32831;-72
2022/02/22 06:39:21;;;;;;;62.50;56.63;;;;;;;9.76;100.00;101761.66;2003440;71;32816;-74
2022/02/22 06:45:07;;;;;;;60.90;55.23;;;;;;;9.71;100.00;101756.06;2005098;71;33329;-71
2022/02/22 06:50:53;;;;;;;59.87;54.40;;;;;;;9.77;100.00;101744.45;1999965;71;32879;-72
2022/02/22 06:56:38;;;;;;;61.43;55.90;;;;;;;9.82;100.00;101723.17;2003758;71;32821;-72
2022/02/22 07:02:22;;;;;;;61.90;55.90;;;;;;;9.93;100.00;101719.95;2003448;71;32802;-71
2022/02/22 07:08:06;;;;;;;63.13;57.87;;;;;;;9.90;100.00;101717.70;2014427;71;32875;-73
2022/02/22 07:13:50;;;;;;;67.30;61.37;;;;;;;9.95;100.00;101712.22;1991012;71;32738;-71
2022/02/22 07:19:36;;;;;;;65.07;59.37;;;;;;;10.01;100.00;101719.52;1998615;70;33180;-74
2022/02/22 07:25:21;;;;;;;63.13;58.07;;;;;;;10.05;100.00;101704.02;2000215;71;32771;-73
2022/02/22 07:31:06;;;;;;;68.00;62.23;;;;;;;10.17;100.00;101685.30;2000350;71;33226;-72
2022/02/22 07:36:52;;;;;;;66.23;60.60;;;;;;;10.13;100.00;101656.90;2000293;71;32837;-73
2022/02/22 07:42:36;;;;;;;67.73;62.33;;;;;;;10.32;100.00;101673.48;2003967;71;33200;-70
2022/02/22 07:48:22;;;;;;;64.90;59.17;;;;;;;10.40;100.00;101661.34;2009069;71;32810;-74
2022/02/22 07:54:07;;;;;;;64.37;59.43;;;;;;;10.50;100.00;101666.16;1994784;71;32906;-72
2022/02/22 07:59:51;;;;;;;65.07;59.63;;;;;;;10.48;100.00;101665.59;2002072;71;33359;-71
2022/02/22 08:05:36;;;;;;;61.40;56.23;;;;;;;10.56;100.00;101651.22;2007918;71;32910;-71
2022/02/22 08:11:21;;;;;;;63.43;57.83;;;;;;;10.76;100.00;101648.58;1996701;71;32787;-72
2022/02/22 08:17:06;;;;;;;61.83;56.43;;;;;;;10.83;100.00;101638.61;1999811;71;32883;-71
2022/02/22 08:22:53;;;;;;;64.63;59.30;;;;;;;10.94;100.00;101635.65;2016250;71;33321;-73
2022/02/22 08:28:37;;;;;;;64.47;59.47;;;;;;;11.22;100.00;101627.45;2014415;70;32910;-72
2022/02/22 08:34:21;;;;;;;65.97;60.67;;;;;;;11.17;100.00;101615.45;2012923;71;32839;-74
2022/02/22 08:40:09;;;;;;;63.50;57.70;;;;;;;11.27;100.00;101589.94;2016260;71;32822;-74
2022/02/22 08:45:53;;;;;;;61.30;56.13;;;;;;;11.44;100.00;101591.10;2016070;71;32970;-74
2022/02/22 08:51:37;;;;;;;60.53;55.60;;;;;;;11.54;100.00;101599.50;2011184;71;32828;-74
2022/02/22 08:57:21;;;;;;;61.70;56.33;;;;;;;11.51;100.00;101610.34;1998077;71;32805;-75
2022/02/22 09:03:05;;;;;;;62.60;57.43;;;;;;;11.62;100.00;101603.69;2016157;71;32943;-74
2022/02/22 09:08:49;;;;;;;62.33;57.47;;;;;;;11.71;100.00;101586.19;2004015;71;32833;-74
2022/02/22 09:14:33;;;;;;;62.30;57.80;;;;;;;11.80;100.00;101576.22;2014416;71;33280;-73
2022/02/22 09:20:20;;;;;;;63.40;58.40;;;;;;;11.88;100.00;101564.25;1991169;71;32725;-74
2022/02/22 09:26:04;;;;;;;60.53;56.13;;;;;;;12.03;100.00;101546.99;2015163;71;32984;-75
2022/02/22 09:31:49;;;;;;;61.03;56.53;;;;;;;12.10;100.00;101542.55;2013024;71;32804;-73
2022/02/22 09:37:33;;;;;;;58.63;54.60;;;;;;;12.35;100.00;101539.75;2012817;71;33335;-75
2022/02/22 09:43:18;;;;;;;60.30;55.97;;;;;;;12.49;100.00;101539.46;2018089;71;33289;-73
2022/02/22 09:49:03;;;;;;;59.93;55.57;;;;;;;12.55;100.00;101543.89;2010577;71;32808;-76
2022/02/22 09:54:47;;;;;;;58.63;54.77;;;;;;;12.59;100.00;101549.73;2017135;71;33325;-74
2022/02/22 10:00:36;;;;;;;58.97;54.87;;;;;;;12.59;100.00;101551.96;1994726;71;33206;-70
2022/02/22 10:06:31;;;;;;;57.13;53.33;;;;;;;12.60;100.00;101563.95;2000430;71;33335;-81
2022/02/22 10:12:15;;;;;;;57.93;53.83;;;;;;;12.67;100.00;101541.63;2018152;71;33292;-77
2022/02/22 10:18:01;;;;;;;58.03;53.90;;;;;;;12.78;100.00;101522.38;2000279;71;33302;-73
2022/02/22 10:23:47;;;;;;;58.17;53.87;;;;;;;13.12;100.00;101528.70;2003718;71;32802;-75
2022/02/22 10:29:43;;;;;;;63.30;59.03;;;;;;;13.18;100.00;101499.08;2018179;71;33352;-71
2022/02/22 10:35:33;;;;;;;59.97;56.00;;;;;;;13.24;100.00;101483.16;1996732;71;33336;-74
2022/02/22 10:41:26;;;;;;;57.50;53.03;;;;;;;13.33;100.00;101492.59;2014656;71;33042;-77
2022/02/22 10:47:18;;;;;;;58.23;54.03;;;;;;;13.57;100.00;101477.35;2014362;71;33012;-74
2022/02/22 10:53:12;;;;;;;58.87;54.50;;;;;;;13.51;100.00;101457.05;2001743;71;32864;-73
2022/02/22 10:58:56;;;;;;;58.90;54.57;;;;;;;13.85;100.00;101454.26;2009028;71;33302;-72
2022/02/22 11:04:42;;;;;;;55.93;52.03;;;;;;;13.94;100.00;101462.84;1957597;72;33045;-72
2022/02/22 11:10:32;;;;;;;55.27;51.53;;;;;;;13.90;100.00;101444.45;2005533;71;32934;-74
2022/02/22 11:16:18;;;;;;;56.23;52.60;;;;;;;13.79;100.00;101479.15;2014802;71;32886;-77
2022/02/22 11:22:13;;;;;;;53.57;50.07;;;;;;;13.78;100.00;101457.92;1994689;71;32764;-72
2022/02/22 11:28:06;;;;;;;52.80;49.43;;;;;;;13.85;100.00;101450.63;2018198;71;33317;-74
2022/02/22 11:33:56;;;;;;;50.30;46.87;;;;;;;13.99;100.00;101456.63;1994860;71;33281;-75
2022/02/22 11:39:51;;;;;;;49.90;46.20;;;;;;;14.22;100.00;101435.45;2002186;71;32871;-72
2022/02/22 11:45:36;;;;;;;48.93;45.47;;;;;;;14.23;100.00;101436.29;2009395;71;33479;-75
2022/02/22 11:51:41;;;;;;;52.87;49.47;;;;;;;14.13;100.00;101424.09;1991301;71;32749;-71
2022/02/22 11:57:29;;;;;;;52.77;49.00;;;;;;;14.04;100.00;101419.43;1996713;71;32758;-74
2022/02/22 12:03:09;;;;;;;53.70;50.10;;;;;;;13.99;100.00;101418.11;1956788;70;105873;-77
2022/02/22 12:05:43;;;;;;;54.60;50.80;;;;;;;13.91;100.00;101441.06;1912936;74;26540;-72
2022/02/22 12:11:30;;;;;;;54.00;49.90;;;;;;;13.97;100.00;101432.36;1994391;71;32878;-73
2022/02/22 12:17:17;;;;;;;57.57;53.97;;;;;;;13.93;100.00;101432.67;2007833;71;33375;-74
2022/02/22 12:23:04;;;;;;;57.77;53.83;;;;;;;13.75;100.00;101433.39;2000344;71;32851;-74
2022/02/22 12:28:51;;;;;;;65.17;60.83;;;;;;;13.63;100.00;101445.50;2013247;71;33475;-73
2022/02/22 12:34:46;;;;;;;66.80;61.70;;;;;;;13.49;100.00;101443.09;1996754;71;32743;-74
2022/02/22 12:40:34;;;;;;;67.13;62.23;;;;;;;13.45;100.00;101445.62;2001978;71;33384;-76
2022/02/22 12:46:25;;;;;;;64.37;60.00;;;;;;;13.48;100.00;101446.44;1998656;70;32827;-76
2022/02/22 12:52:15;;;;;;;68.57;63.23;;;;;;;13.46;100.00;101453.44;2005185;71;32818;-74
2022/02/22 12:58:07;;;;;;;68.93;63.77;;;;;;;13.46;100.00;101475.77;2009828;71;33237;-75
2022/02/22 13:03:54;;;;;;;66.73;61.57;;;;;;;13.31;100.00;101479.48;2018002;71;33306;-78
2022/02/22 13:09:38;;;;;;;65.93;60.83;;;;;;;13.30;100.00;101481.19;2018308;70;32798;-73
2022/02/22 13:15:25;;;;;;;65.60;60.60;;;;;;;13.35;100.00;101484.75;2005225;71;32851;-75
2022/02/22 13:21:16;;;;;;;60.07;55.27;;;;;;;13.44;100.00;101490.56;2000173;71;32807;-73
2022/02/22 13:27:02;;;;;;;61.83;56.63;;;;;;;13.62;100.00;101488.49;2008819;71;32874;-73
2022/02/22 13:32:48;;;;;;;60.50;56.00;;;;;;;13.65;100.00;101488.73;2001674;71;32893;-74
2022/02/22 13:38:36;;;;;;;65.17;60.27;;;;;;;13.44;100.00;101483.03;2016237;71;32822;-73
2022/02/22 13:44:36;;;;;;;65.13;59.87;;;;;;;13.17;100.00;101520.31;2005833;71;32752;-81
2022/02/22 13:50:25;;;;;;;64.80;59.90;;;;;;;12.61;100.00;101530.79;2015073;71;32876;-80
2022/02/22 13:56:13;;;;;;;61.93;57.23;;;;;;;12.39;100.00;101543.64;2009572;71;32834;-80
2022/02/22 14:01:57;;;;;;;63.53;58.77;;;;;;;12.36;100.00;101548.39;2014596;71;32867;-72
2022/02/22 14:07:43;;;;;;;62.77;58.30;;;;;;;12.44;100.00;101545.59;2016281;71;33306;-74
2022/02/22 14:13:29;;;;;;;64.87;60.57;;;;;;;12.61;100.00;101543.33;2011176;71;32853;-76
2022/02/22 14:19:13;;;;;;;61.60;57.70;;;;;;;12.71;100.00;101564.20;2011434;71;32808;-75
2022/02/22 14:24:57;;;;;;;48.90;46.37;;;;;;;12.96;100.00;101561.92;2012891;71;33276;-78
2022/02/22 14:30:42;;;;;;;40.10;38.00;;;;;;;13.08;100.00;101576.37;2005625;71;32766;-77
2022/02/22 14:36:28;;;;;;;35.70;33.70;;;;;;;13.13;100.00;101578.63;1999899;71;32883;-72
2022/02/22 14:42:13;;;;;;;33.87;31.97;;;;;;;13.47;100.00;101575.97;2012687;71;32946;-71
2022/02/22 14:47:57;;;;;;;28.50;26.80;;;;;;;13.61;100.00;101571.95;2004015;71;32727;-76
2022/02/22 14:53:42;;;;;;;27.33;26.03;;;;;;;13.66;100.00;101563.00;2013048;71;32733;-71
2022/02/22 14:59:26;;;;;;;26.60;25.00;;;;;;;13.59;100.00;101575.06;2016201;71;32954;-78
2022/02/22 15:05:11;;;;;;;20.83;19.63;;;;;;;13.54;100.00;101580.66;1997586;71;32821;-77
2022/02/22 15:10:56;;;;;;;15.00;14.20;;;;;;;13.72;100.00;101593.13;1999985;71;34162;-79
2022/02/22 15:16:41;;;;;;;13.10;12.00;;;;;;;13.73;100.00;101617.70;2009735;71;32942;-74
2022/02/22 15:22:26;;;;;;;11.23;10.53;;;;;;;13.77;100.00;101623.83;2017198;71;32830;-75
2022/02/22 15:28:10;;;;;;;11.50;10.80;;;;;;;13.66;100.00;101644.52;2016403;71;32865;-72
2022/02/22 15:33:55;;;;;;;11.27;10.23;;;;;;;13.75;100.00;101641.41;1999726;71;32884;-77
2022/02/22 15:39:41;;;;;;;10.70;9.80;;;;;;;13.49;100.00;101671.39;2018059;71;32808;-76
2022/02/22 15:45:25;;;;;;;11.53;10.63;;;;;;;13.43;100.00;101681.48;2000729;71;33355;-74
2022/02/22 15:51:10;;;;;;;10.80;10.10;;;;;;;13.20;100.00;101690.75;2016300;71;32864;-77
2022/02/22 15:56:56;;;;;;;11.23;10.50;;;;;;;13.14;100.00;101698.84;2000406;70;32771;-78
2022/02/22 16:02:42;;;;;;;11.27;10.40;;;;;;;13.09;100.00;101711.36;2008818;71;32839;-73
2022/02/22 16:08:27;;;;;;;11.70;10.70;;;;;;;13.01;100.00;101729.22;2012483;71;32822;-77
2022/02/22 16:14:11;;;;;;;11.13;10.37;;;;;;;12.95;100.00;101740.12;1994662;70;32812;-72
2022/02/22 16:19:56;;;;;;;10.87;10.27;;;;;;;12.82;100.00;101764.38;2009161;71;33379;-72
2022/02/22 16:25:40;;;;;;;10.57;9.93;;;;;;;12.77;100.00;101767.99;2011309;71;32968;-72
2022/02/22 16:31:24;;;;;;;11.80;11.00;;;;;;;12.74;100.00;101779.16;2009440;71;32759;-73
2022/02/22 16:37:08;;;;;;;12.20;11.30;;;;;;;12.61;100.00;101795.02;1996596;71;32758;-73
2022/02/22 16:42:53;;;;;;;11.53;10.63;;;;;;;12.54;100.00;101798.61;1991078;71;32820;-73
2022/02/22 16:48:38;;;;;;;12.53;11.53;;;;;;;12.49;100.00;101825.66;2000172;71;32758;-73
2022/02/22 16:54:23;;;;;;;12.10;11.00;;;;;;;12.62;100.00;101829.31;2010937;71;33025;-76
2022/02/22 17:00:10;;;;;;;11.23;10.50;;;;;;;12.65;100.00;101840.75;2004995;70;32808;-73
2022/02/22 17:05:57;;;;;;;11.00;10.30;;;;;;;12.67;100.00;101866.93;1991123;71;32810;-77
2022/02/22 17:11:41;;;;;;;11.57;10.53;;;;;;;12.14;100.00;101875.94;2000274;71;33046;-77
2022/02/22 17:17:25;;;;;;;11.30;10.43;;;;;;;12.21;100.00;101897.41;1991177;71;33276;-77
2022/02/22 17:23:09;;;;;;;10.23;9.37;;;;;;;12.15;100.00;101913.80;2011326;71;32841;-76
2022/02/22 17:28:54;;;;;;;11.50;10.60;;;;;;;12.10;100.00;101917.13;2009134;71;32984;-76
2022/02/22 17:34:38;;;;;;;11.83;10.80;;;;;;;12.08;100.00;101945.80;2005380;71;33286;-77
2022/02/22 17:40:25;;;;;;;12.47;11.43;;;;;;;11.73;100.00;101961.68;2016175;71;33040;-74
2022/02/22 17:46:12;;;;;;;12.90;11.90;;;;;;;11.14;100.00;101974.17;2016859;71;32858;-80
2022/02/22 17:52:00;;;;;;;15.03;13.93;;;;;;;10.64;100.00;102002.21;2015417;71;32838;-76
2022/02/22 17:57:46;;;;;;;15.10;13.80;;;;;;;10.78;100.00;102022.94;1998271;71;32882;-72
2022/02/22 18:03:33;;;;;;;16.47;15.20;;;;;;;10.69;100.00;102036.17;2011168;71;33456;-73
2022/02/22 18:09:19;;;;;;;13.73;12.83;;;;;;;10.59;100.00;102051.30;2014805;71;30908;-81
2022/02/22 18:15:04;;;;;;;14.10;12.90;;;;;;;10.62;100.00;102067.45;2016150;71;32840;-80
2022/02/22 18:20:48;;;;;;;15.47;14.27;;;;;;;10.57;100.00;102066.83;2010969;71;33016;-81
2022/02/22 18:26:33;;;;;;;15.97;14.67;;;;;;;10.32;100.00;102080.34;1996759;71;30828;-74
2022/02/22 18:32:19;;;;;;;15.57;14.47;;;;;;;10.37;100.00;102098.48;1996684;71;32840;-74
2022/02/22 18:38:03;;;;;;;15.30;14.10;;;;;;;10.18;100.00;102102.62;2012927;71;33386;-79
2022/02/22 18:43:49;;;;;;;16.03;14.73;;;;;;;10.14;100.00;102123.05;2009704;71;33340;-73
2022/02/22 18:49:34;;;;;;;16.07;15.00;;;;;;;10.28;100.00;102146.66;2009805;71;33291;-81
2022/02/22 18:55:19;;;;;;;16.23;15.00;;;;;;;10.21;100.00;102152.09;2017070;71;32913;-78
2022/02/22 19:01:03;;;;;;;16.43;15.13;;;;;;;9.97;100.00;102169.37;2007511;71;32825;-78
2022/02/22 19:06:48;;;;;;;21.80;20.10;;;;;;;9.63;100.00;102168.44;2012960;71;32889;-71
2022/02/22 19:12:32;;;;;;;20.47;19.20;;;;;;;9.39;100.00;102185.72;2007424;71;32807;-77
2022/02/22 19:18:16;;;;;;;23.20;21.60;;;;;;;9.61;100.00;102191.45;2018150;71;32902;-77
2022/02/22 19:24:06;;;;;;;29.77;27.67;;;;;;;9.07;100.00;102208.02;2009064;71;33403;-72
2022/02/22 19:29:50;;;;;;;37.27;34.70;;;;;;;8.62;100.00;102234.06;2016265;71;32863;-78
2022/02/22 19:35:34;;;;;;;47.53;43.90;;;;;;;8.29;100.00;102255.38;2011191;71;32769;-73
2022/02/22 19:41:19;;;;;;;54.67;51.23;;;;;;;8.21;100.00;102265.36;2013502;71;32800;-76
2022/02/22 19:47:03;;;;;;;51.70;48.27;;;;;;;8.01;100.00;102261.47;1994347;71;32965;-72
2022/02/22 19:52:47;;;;;;;50.63;47.23;;;;;;;8.28;100.00;102280.48;2007380;71;32940;-72
2022/02/22 19:58:33;;;;;;;49.80;46.33;;;;;;;8.16;100.00;102286.83;2008946;71;33396;-72
2022/02/22 20:04:17;;;;;;;51.30;47.90;;;;;;;8.03;100.00;102302.76;2016225;71;33409;-80
2022/02/22 20:10:01;;;;;;;54.57;50.97;;;;;;;7.82;100.00;102319.31;2014956;71;33359;-79
2022/02/22 20:15:47;;;;;;;54.47;50.80;;;;;;;7.87;100.00;102333.30;1994227;71;32833;-75
2022/02/22 20:21:31;;;;;;;55.73;51.30;;;;;;;7.94;100.00;102331.28;2005833;71;32908;-75
2022/02/22 20:27:16;;;;;;;55.97;52.37;;;;;;;7.77;100.00;102337.98;2014627;71;33381;-78
2022/02/22 20:33:01;;;;;;;56.30;52.50;;;;;;;7.68;100.00;102336.59;2000223;71;33219;-73
2022/02/22 20:38:46;;;;;;;56.33;52.27;;;;;;;7.80;100.00;102339.42;2018051;71;33348;-73
2022/02/22 20:44:31;;;;;;;57.77;54.03;;;;;;;7.65;100.00;102338.44;1999977;71;32780;-76
2022/02/22 20:50:15;;;;;;;53.17;49.30;;;;;;;7.55;100.00;102349.17;2014455;71;32980;-72
2022/02/22 20:55:59;;;;;;;51.17;47.77;;;;;;;7.52;100.00;102349.64;2012393;71;32989;-79
2022/02/22 21:01:43;;;;;;;49.37;46.03;;;;;;;7.94;100.00;102348.42;2003509;71;32839;-71
2022/02/22 21:07:28;;;;;;;46.63;43.30;;;;;;;7.93;100.00;102356.41;2005950;71;32827;-79
2022/02/22 21:13:12;;;;;;;43.50;40.77;;;;;;;7.94;100.00;102358.11;2012812;71;33432;-78
2022/02/22 21:18:58;;;;;;;45.53;42.13;;;;;;;7.72;100.00;102369.63;1998628;71;33358;-70
2022/02/22 21:24:43;;;;;;;43.40;40.50;;;;;;;7.84;100.00;102372.47;1994890;71;33344;-79
2022/02/22 21:30:28;;;;;;;44.00;40.60;;;;;;;7.90;100.00;102374.86;1999675;71;32910;-71
2022/02/22 21:36:13;;;;;;;47.13;43.87;;;;;;;7.90;100.00;102385.39;2014766;71;33297;-73
2022/02/22 21:41:57;;;;;;;47.37;43.97;;;;;;;7.95;100.00;102392.47;2017994;71;32897;-75
2022/02/22 21:47:44;;;;;;;46.43;43.43;;;;;;;7.92;100.00;102396.21;2003457;71;32826;-73
2022/02/22 21:53:28;;;;;;;50.43;46.90;;;;;;;7.83;100.00;102403.97;2010617;71;33346;-73
2022/02/22 21:59:13;;;;;;;53.60;49.73;;;;;;;7.75;100.00;102412.56;2005156;70;32874;-74
2022/02/22 22:04:57;;;;;;;53.50;49.57;;;;;;;7.68;100.00;102433.92;1967390;72;32956;-74
2022/02/22 22:10:42;;;;;;;56.83;52.73;;;;;;;7.50;100.00;102454.61;2002044;71;32930;-72
2022/02/22 22:16:26;;;;;;;57.53;53.50;;;;;;;7.52;100.00;102448.34;2002115;71;32799;-77
2022/02/22 22:22:12;;;;;;;60.07;55.67;;;;;;;7.67;100.00;102441.91;2004001;71;32795;-75
2022/02/22 22:27:56;;;;;;;62.80;58.10;;;;;;;7.60;100.00;102453.05;2007550;71;32726;-73
2022/02/22 22:33:42;;;;;;;64.17;59.03;;;;;;;7.53;100.00;102455.56;2000260;71;32761;-73
2022/02/22 22:39:27;;;;;;;63.47;58.57;;;;;;;7.50;100.00;102466.52;2016209;71;32807;-74
2022/02/22 22:45:13;;;;;;;63.73;58.77;;;;;;;7.39;100.00;102469.17;2014615;71;32920;-74
2022/02/22 22:50:57;;;;;;;62.40;56.70;;;;;;;7.53;100.00;102476.30;2014472;71;32841;-74
2022/02/22 22:56:41;;;;;;;60.90;56.07;;;;;;;7.45;100.00;102480.70;2012668;71;32787;-74
2022/02/22 23:02:25;;;;;;;62.17;57.10;;;;;;;7.44;100.00;102483.18;1990988;71;32727;-72
2022/02/22 23:14:13;;;;;;;62.87;57.70;;;;;;;7.36;100.00;102477.36;2004787;71;33320;-73
2022/02/22 23:19:59;;;;;;;62.87;57.90;;;;;;;7.41;100.00;102478.92;2003647;71;33336;-74
2022/02/22 23:25:44;;;;;;;60.17;55.27;;;;;;;7.45;100.00;102487.61;1998428;71;32736;-74
2022/02/22 23:31:28;;;;;;;60.50;55.60;;;;;;;7.42;100.00;102484.77;2016149;71;32952;-74
2022/02/22 23:37:12;;;;;;;60.97;55.27;;;;;;;7.46;100.00;102487.93;1994354;71;32874;-74
2022/02/22 23:42:56;;;;;;;60.17;54.93;;;;;;;7.50;100.00;102494.17;2017987;71;32816;-72
2022/02/22 23:48:41;;;;;;;59.80;54.30;;;;;;;7.54;100.00;102493.18;2009253;71;32884;-73
2022/02/22 23:54:25;;;;;;;59.07;54.27;;;;;;;7.63;100.00;102502.89;2012669;71;32774;-73
